Thunder radar more information blitzortung!


Radar de pluja more information rain snow radar


Visita la nostra xarxa de llocs de meteo:

Template documentation
and downloads

And another site



No particular awareness of the weather is required.    There are no Weather-warnings

Pagina Historial Weather Underground text

Diari Resum Juny 17, 2017 Unitats:  Mètric    Imperial   Tant
« Previous Dia
SegĂźent Dia »
Diari Setmana Mensual Anual Personalitzada
  Maxima: Minima: Media:
Temperatura: 32.6 °C 21.3 °C 27.8 °C
Punt de rosada: 19.4 °C 15.2 °C 17.7 °C
Humitat: 82 % 42 % 56 %
Wind Speed: 22.2 km/h 0.0 km/h 7.6 km/h
RĂ fegues de vent: 22.2 km/h - -
Vent:- - SE
Pression baro: 1017.8 hPa 1012.8 hPa -
Precipitacions: 0.0 mm    
Historical Graphs
 
 
Dades de taula per Juny 17, 2017
Temps Temperatura Punt de rosada Pression baro Vent Wind Speed RĂ fegues de vent Humitat Rainfall Rate (Hourly)
00:00 25.0 °C 15.3 °C 1017.8 hPa SW 4.2 km/h 4.2 km/h 55 % 0.0 mm
00:05 24.9 °C 15.5 °C 1017.8 hPa SSW 3.7 km/h 3.7 km/h 56 % 0.0 mm
00:15 22.6 °C 15.9 °C 1015.8 hPa Calm   1.6 km/h 66 % 0.0 mm
00:25 22.6 °C 15.9 °C 1015.8 hPa Calm   3.2 km/h 66 % 0.0 mm
00:35 22.5 °C 15.8 °C 1015.8 hPa NNW 1.6 km/h 1.6 km/h 66 % 0.0 mm
00:45 22.5 °C 15.6 °C 1015.8 hPa NW 1.6 km/h 3.2 km/h 65 % 0.0 mm
00:55 22.4 °C 15.7 °C 1015.8 hPa Calm   1.6 km/h 66 % 0.0 mm
01:05 22.3 °C 15.7 °C 1014.8 hPa North 1.6 km/h 3.2 km/h 66 % 0.0 mm
01:15 22.3 °C 15.7 °C 1014.8 hPa Calm   1.6 km/h 66 % 0.0 mm
01:25 22.2 °C 15.6 °C 1015.8 hPa NNE 1.6 km/h 3.2 km/h 66 % 0.0 mm
01:35 21.6 °C 15.4 °C 1015.8 hPa Calm     68 % 0.0 mm
01:45 21.3 °C 15.4 °C 1015.8 hPa Calm   3.2 km/h 69 % 0.0 mm
02:00 21.6 °C 15.7 °C 1015.8 hPa Calm   1.6 km/h 69 % 0.0 mm
02:10 21.4 °C 15.2 °C 1015.8 hPa NW 1.6 km/h 3.2 km/h 68 % 0.0 mm
02:20 21.6 °C 15.9 °C 1015.8 hPa Calm   1.6 km/h 70 % 0.0 mm
02:30 21.6 °C 15.7 °C 1015.8 hPa SW 1.6 km/h 1.6 km/h 69 % 0.0 mm
02:40 22.0 °C 16.1 °C 1015.8 hPa SW 1.6 km/h 3.2 km/h 69 % 0.0 mm
02:50 22.8 °C 16.6 °C 1015.8 hPa South 1.6 km/h 1.6 km/h 68 % 0.0 mm
03:00 22.9 °C 16.4 °C 1015.8 hPa SSE 3.2 km/h 3.2 km/h 67 % 0.0 mm
03:10 23.1 °C 16.4 °C 1015.8 hPa South 1.6 km/h 4.8 km/h 66 % 0.0 mm
03:20 23.3 °C 16.3 °C 1015.8 hPa SW 1.6 km/h 3.2 km/h 65 % 0.0 mm
03:30 23.5 °C 16.6 °C 1015.8 hPa SW 1.6 km/h 3.2 km/h 65 % 0.0 mm
03:40 23.7 °C 16.5 °C 1015.8 hPa SW 1.6 km/h 4.8 km/h 64 % 0.0 mm
03:50 24.3 °C 16.6 °C 1015.8 hPa SW 3.2 km/h 3.2 km/h 62 % 0.0 mm
04:00 25.2 °C 17.2 °C 1015.8 hPa Calm   3.2 km/h 61 % 0.0 mm
04:10 26.2 °C 17.8 °C 1015.8 hPa NNW 1.6 km/h 3.2 km/h 60 % 0.0 mm
04:20 26.4 °C 17.4 °C 1015.8 hPa NNE 4.8 km/h 4.8 km/h 58 % 0.0 mm
04:30 27.1 °C 17.8 °C 1015.8 hPa NE 1.6 km/h 3.2 km/h 57 % 0.0 mm
04:40 27.3 °C 17.8 °C 1015.8 hPa NE 1.6 km/h 4.8 km/h 56 % 0.0 mm
04:50 27.7 °C 17.8 °C 1015.8 hPa NE 3.2 km/h 3.2 km/h 55 % 0.0 mm
05:00 28.3 °C 18.1 °C 1015.8 hPa North 1.6 km/h 3.2 km/h 54 % 0.0 mm
10:02 28.7 °C 18.2 °C 1015.8 hPa NE 1.9 km/h 4.7 km/h 53 % 0.0 mm
10:07 28.3 °C 17.8 °C 1015.8 hPa East 3.7 km/h 3.7 km/h 53 % 0.0 mm
10:12 28.2 °C 17.4 °C 1015.8 hPa ESE 7.4 km/h 7.4 km/h 52 % 0.0 mm
10:17 28.1 °C 17.3 °C 1015.8 hPa SE 7.4 km/h 7.4 km/h 52 % 0.0 mm
10:22 28.5 °C 17.7 °C 1015.8 hPa ESE 7.4 km/h 7.4 km/h 52 % 0.0 mm
10:27 28.9 °C 18.1 °C 1015.8 hPa NE 5.6 km/h 5.6 km/h 52 % 0.0 mm
10:32 29.5 °C 18.0 °C 1015.8 hPa ESE 5.0 km/h 5.0 km/h 50 % 0.0 mm
10:37 29.1 °C 17.6 °C 1015.8 hPa SSE 3.7 km/h 3.7 km/h 50 % 0.0 mm
10:42 29.1 °C 17.3 °C 1015.8 hPa NE 4.2 km/h 4.2 km/h 49 % 0.0 mm
10:47 28.9 °C 17.4 °C 1014.8 hPa NNE 7.4 km/h 7.4 km/h 50 % 0.0 mm
10:52 29.4 °C 17.6 °C 1014.8 hPa SSE 3.7 km/h 3.7 km/h 49 % 0.0 mm
10:57 29.7 °C 17.8 °C 1014.8 hPa East 5.3 km/h 5.3 km/h 49 % 0.0 mm
11:02 30.1 °C 17.9 °C 1014.8 hPa SSW 5.6 km/h 5.6 km/h 48 % 0.0 mm
11:07 30.0 °C 17.8 °C 1014.8 hPa WSW 4.2 km/h 4.2 km/h 48 % 0.0 mm
11:12 30.9 °C 18.3 °C 1014.8 hPa South 6.1 km/h 6.1 km/h 47 % 0.0 mm
11:17 31.0 °C 18.0 °C 1014.8 hPa SW 7.4 km/h 7.4 km/h 46 % 0.0 mm
11:22 31.1 °C 18.1 °C 1014.8 hPa WNW 4.2 km/h 4.2 km/h 46 % 0.0 mm
11:27 31.7 °C 18.3 °C 1014.8 hPa SSE 4.2 km/h 4.2 km/h 45 % 0.0 mm
11:32 31.8 °C 18.4 °C 1014.8 hPa West 7.4 km/h 7.4 km/h 45 % 0.0 mm
11:37 31.7 °C 18.3 °C 1014.8 hPa SW 5.6 km/h 5.6 km/h 45 % 0.0 mm
11:42 32.0 °C 18.2 °C 1014.8 hPa West 1.9 km/h 1.9 km/h 44 % 0.0 mm
11:47 32.3 °C 18.5 °C 1014.8 hPa WSW 5.6 km/h 5.6 km/h 44 % 0.0 mm
11:52 32.5 °C 18.3 °C 1014.8 hPa NNE 3.7 km/h 3.7 km/h 43 % 0.0 mm
11:57 32.6 °C 18.4 °C 1014.8 hPa South 7.4 km/h 7.4 km/h 43 % 0.0 mm
12:02 32.3 °C 18.1 °C 1014.8 hPa SE 9.3 km/h 9.3 km/h 43 % 0.0 mm
12:07 31.9 °C 17.8 °C 1014.8 hPa NE 9.5 km/h 9.5 km/h 43 % 0.0 mm
12:12 31.9 °C 17.8 °C 1014.8 hPa ESE 10.3 km/h 10.3 km/h 43 % 0.0 mm
12:18 31.8 °C 17.7 °C 1013.8 hPa ENE 9.3 km/h 9.3 km/h 43 % 0.0 mm
12:23 32.6 °C 18.4 °C 1013.8 hPa NE 5.6 km/h 5.6 km/h 43 % 0.0 mm
12:28 32.0 °C 17.8 °C 1013.8 hPa East 12.2 km/h 12.2 km/h 43 % 0.0 mm
12:33 31.8 °C 17.7 °C 1013.8 hPa SE 13.0 km/h 13.0 km/h 43 % 0.0 mm
12:38 32.0 °C 17.8 °C 1013.8 hPa SE 9.5 km/h 9.5 km/h 43 % 0.0 mm
12:43 32.0 °C 17.8 °C 1013.8 hPa SE 13.0 km/h 13.0 km/h 43 % 0.0 mm
12:48 31.9 °C 17.8 °C 1013.8 hPa East 10.3 km/h 10.3 km/h 43 % 0.0 mm
12:53 31.4 °C 17.3 °C 1013.8 hPa West 14.8 km/h 14.8 km/h 43 % 0.0 mm
12:58 31.5 °C 17.4 °C 1013.8 hPa ESE 13.0 km/h 13.0 km/h 43 % 0.0 mm
13:03 31.9 °C 17.8 °C 1013.8 hPa ESE 13.0 km/h 13.0 km/h 43 % 0.0 mm
13:08 32.4 °C 18.2 °C 1013.8 hPa ESE 11.1 km/h 11.1 km/h 43 % 0.0 mm
13:13 31.9 °C 17.8 °C 1013.8 hPa East 11.1 km/h 11.1 km/h 43 % 0.0 mm
13:18 32.1 °C 17.9 °C 1013.8 hPa East 18.5 km/h 18.5 km/h 43 % 0.0 mm
13:23 32.1 °C 17.9 °C 1013.8 hPa ESE 11.1 km/h 11.9 km/h 43 % 0.0 mm
13:28 32.1 °C 17.9 °C 1013.8 hPa ESE 18.5 km/h 18.5 km/h 43 % 0.0 mm
13:33 32.3 °C 18.1 °C 1013.8 hPa ESE 16.4 km/h 16.4 km/h 43 % 0.0 mm
13:38 32.2 °C 18.1 °C 1013.8 hPa ENE 12.6 km/h 12.6 km/h 43 % 0.0 mm
13:43 32.5 °C 18.3 °C 1013.8 hPa SE 14.8 km/h 14.8 km/h 43 % 0.0 mm
13:48 32.4 °C 18.2 °C 1013.8 hPa NE 13.7 km/h 13.7 km/h 43 % 0.0 mm
13:53 32.0 °C 17.8 °C 1013.8 hPa ESE 13.0 km/h 13.0 km/h 43 % 0.0 mm
13:58 32.1 °C 17.6 °C 1013.8 hPa ESE 13.0 km/h 13.0 km/h 42 % 0.0 mm
14:03 31.8 °C 17.7 °C 1013.8 hPa ENE 16.7 km/h 16.7 km/h 43 % 0.0 mm
14:08 32.1 °C 17.9 °C 1013.8 hPa East 16.9 km/h 16.9 km/h 43 % 0.0 mm
14:13 32.0 °C 17.8 °C 1013.8 hPa ENE 15.8 km/h 15.8 km/h 43 % 0.0 mm
14:18 31.9 °C 18.1 °C 1013.8 hPa NE 13.0 km/h 13.0 km/h 44 % 0.0 mm
14:23 32.0 °C 18.2 °C 1013.8 hPa ESE 16.7 km/h 16.7 km/h 44 % 0.0 mm
14:28 32.1 °C 18.3 °C 1013.8 hPa East 13.0 km/h 13.0 km/h 44 % 0.0 mm
14:33 31.9 °C 18.5 °C 1012.8 hPa ESE 18.5 km/h 18.5 km/h 45 % 0.0 mm
14:38 32.1 °C 18.3 °C 1012.8 hPa ESE 18.5 km/h 18.5 km/h 44 % 0.0 mm
14:43 31.8 °C 18.4 °C 1012.8 hPa East 13.0 km/h 13.0 km/h 45 % 0.0 mm
14:48 31.9 °C 18.5 °C 1012.8 hPa NE 13.0 km/h 13.0 km/h 45 % 0.0 mm
14:53 31.8 °C 18.8 °C 1012.8 hPa ESE 14.8 km/h 14.8 km/h 46 % 0.0 mm
14:54 31.7 °C 18.7 °C 1012.8 hPa East 16.7 km/h 16.7 km/h 46 % 0.0 mm
14:59 31.8 °C 18.8 °C 1012.8 hPa WNW 9.3 km/h 9.3 km/h 46 % 0.0 mm
15:04 31.9 °C 18.8 °C 1013.8 hPa ESE 20.4 km/h 20.4 km/h 46 % 0.0 mm
15:09 31.8 °C 18.8 °C 1013.8 hPa ESE 11.1 km/h 11.1 km/h 46 % 0.0 mm
15:14 31.9 °C 18.8 °C 1013.8 hPa ENE 16.7 km/h 16.7 km/h 46 % 0.0 mm
15:19 32.0 °C 19.3 °C 1013.8 hPa ESE 13.0 km/h 13.0 km/h 47 % 0.0 mm
15:24 31.6 °C 19.3 °C 1013.8 hPa East 22.2 km/h 22.2 km/h 48 % 0.0 mm
15:29 31.8 °C 19.4 °C 1013.8 hPa ESE 13.0 km/h 13.0 km/h 48 % 0.0 mm
15:34 31.6 °C 18.9 °C 1013.8 hPa East 18.5 km/h 18.5 km/h 47 % 0.0 mm
15:39 31.5 °C 18.5 °C 1013.8 hPa NE 13.0 km/h 13.0 km/h 46 % 0.0 mm
15:44 31.9 °C 18.8 °C 1013.8 hPa ESE 9.3 km/h 9.3 km/h 46 % 0.0 mm
15:49 32.2 °C 18.8 °C 1013.8 hPa ESE 11.1 km/h 11.1 km/h 45 % 0.0 mm
15:54 31.6 °C 18.2 °C 1013.8 hPa ENE 18.5 km/h 18.5 km/h 45 % 0.0 mm
15:59 32.0 °C 18.2 °C 1013.8 hPa ENE 9.7 km/h 9.7 km/h 44 % 0.0 mm
16:04 31.9 °C 18.1 °C 1012.8 hPa ESE 16.7 km/h 16.7 km/h 44 % 0.0 mm
16:09 31.9 °C 17.8 °C 1012.8 hPa SSE 14.8 km/h 14.8 km/h 43 % 0.0 mm
16:15 31.6 °C 17.5 °C 1013.8 hPa NE 13.0 km/h 13.0 km/h 43 % 0.0 mm
16:20 31.5 °C 17.1 °C 1013.8 hPa ENE 14.8 km/h 14.8 km/h 42 % 0.0 mm
16:25 31.6 °C 17.1 °C 1013.8 hPa ESE 13.0 km/h 13.0 km/h 42 % 0.0 mm
16:30 31.4 °C 16.9 °C 1013.8 hPa ESE 14.0 km/h 14.0 km/h 42 % 0.0 mm
16:35 31.2 °C 16.8 °C 1013.8 hPa ENE 20.9 km/h 20.9 km/h 42 % 0.0 mm
16:40 31.2 °C 17.1 °C 1013.8 hPa ESE 9.5 km/h 9.5 km/h 43 % 0.0 mm
16:45 31.2 °C 17.1 °C 1013.8 hPa ENE 16.7 km/h 16.7 km/h 43 % 0.0 mm
16:46 31.2 °C 17.1 °C 1013.8 hPa ESE 11.9 km/h 11.9 km/h 43 % 0.0 mm
16:51 31.1 °C 17.1 °C 1013.8 hPa East 11.4 km/h 11.4 km/h 43 % 0.0 mm
16:56 31.0 °C 16.6 °C 1013.8 hPa NE 13.0 km/h 13.0 km/h 42 % 0.0 mm
17:01 31.1 °C 17.1 °C 1013.8 hPa ESE 16.7 km/h 16.7 km/h 43 % 0.0 mm
17:06 31.0 °C 16.9 °C 1013.8 hPa ENE 9.3 km/h 9.3 km/h 43 % 0.0 mm
17:11 30.8 °C 17.1 °C 1013.8 hPa East 9.3 km/h 9.3 km/h 44 % 0.0 mm
17:16 30.9 °C 17.2 °C 1013.8 hPa ENE 14.8 km/h 14.8 km/h 44 % 0.0 mm
17:21 30.6 °C 17.3 °C 1013.8 hPa ESE 20.9 km/h 20.9 km/h 45 % 0.0 mm
17:26 30.4 °C 17.1 °C 1013.8 hPa SE 14.0 km/h 14.0 km/h 45 % 0.0 mm
17:31 30.1 °C 17.2 °C 1013.8 hPa ESE 13.0 km/h 13.0 km/h 46 % 0.0 mm
17:36 29.8 °C 17.3 °C 1013.8 hPa SE 16.7 km/h 16.7 km/h 47 % 0.0 mm
17:41 29.6 °C 17.1 °C 1013.8 hPa ESE 20.4 km/h 20.4 km/h 47 % 0.0 mm
17:46 29.5 °C 17.3 °C 1013.8 hPa ENE 9.3 km/h 9.3 km/h 48 % 0.0 mm
17:47 29.5 °C 17.3 °C 1013.8 hPa NW 15.8 km/h 15.8 km/h 48 % 0.0 mm
17:52 29.5 °C 17.3 °C 1013.8 hPa NE 9.3 km/h 9.3 km/h 48 % 0.0 mm
17:57 29.3 °C 17.5 °C 1013.8 hPa ENE 17.5 km/h 17.5 km/h 49 % 0.0 mm
18:02 29.4 °C 17.6 °C 1013.8 hPa East 11.1 km/h 11.1 km/h 49 % 0.0 mm
18:07 29.5 °C 17.7 °C 1013.8 hPa SSE 9.3 km/h 10.3 km/h 49 % 0.0 mm
18:12 29.4 °C 17.9 °C 1013.8 hPa ESE 9.3 km/h 9.3 km/h 50 % 0.0 mm
18:13 29.3 °C 17.8 °C 1013.8 hPa ENE 16.7 km/h 16.7 km/h 50 % 0.0 mm
18:18 29.2 °C 17.7 °C 1012.8 hPa SE 11.1 km/h 11.1 km/h 50 % 0.0 mm
18:23 29.3 °C 17.8 °C 1012.8 hPa ESE 13.7 km/h 13.7 km/h 50 % 0.0 mm
18:28 29.0 °C 17.5 °C 1012.8 hPa East 11.1 km/h 11.1 km/h 50 % 0.0 mm
18:33 28.9 °C 18.1 °C 1012.8 hPa ENE 14.8 km/h 14.8 km/h 52 % 0.0 mm
18:38 28.9 °C 18.1 °C 1012.8 hPa ENE 9.3 km/h 9.3 km/h 52 % 0.0 mm
18:43 28.8 °C 17.9 °C 1012.8 hPa ENE 13.0 km/h 13.0 km/h 52 % 0.0 mm
18:48 28.7 °C 17.9 °C 1012.8 hPa East 12.2 km/h 12.2 km/h 52 % 0.0 mm
18:53 28.7 °C 17.9 °C 1012.8 hPa East 11.1 km/h 11.1 km/h 52 % 0.0 mm
18:58 28.5 °C 17.7 °C 1012.8 hPa ESE 16.7 km/h 16.7 km/h 52 % 0.0 mm
18:59 28.4 °C 17.6 °C 1012.8 hPa East 16.7 km/h 16.7 km/h 52 % 0.0 mm
19:04 28.4 °C 17.6 °C 1012.8 hPa ENE 11.1 km/h 11.1 km/h 52 % 0.0 mm
19:09 28.5 °C 17.7 °C 1012.8 hPa NNE 13.0 km/h 13.0 km/h 52 % 0.0 mm
19:14 28.3 °C 17.5 °C 1012.8 hPa ESE 14.8 km/h 14.8 km/h 52 % 0.0 mm
19:19 28.3 °C 17.5 °C 1012.8 hPa North 7.4 km/h 7.4 km/h 52 % 0.0 mm
19:20 24.1 °C 18.1 °C 1013.8 hPa SW 1.6 km/h 1.6 km/h 69 % 0.0 mm
19:24 28.2 °C 17.4 °C 1012.8 hPa East 13.0 km/h 13.0 km/h 52 % 0.0 mm
19:29 28.1 °C 17.6 °C 1012.8 hPa ENE 13.0 km/h 13.0 km/h 53 % 0.0 mm
19:30 24.0 °C 17.9 °C 1013.8 hPa SW 1.6 km/h 1.6 km/h 69 % 0.0 mm
19:34 28.2 °C 17.7 °C 1012.8 hPa East 7.4 km/h 7.4 km/h 53 % 0.0 mm
19:39 28.2 °C 17.7 °C 1012.8 hPa East 11.1 km/h 11.1 km/h 53 % 0.0 mm
19:40 24.0 °C 18.2 °C 1013.8 hPa Calm   3.2 km/h 70 % 0.0 mm
19:44 28.0 °C 17.8 °C 1012.8 hPa ESE 5.6 km/h 5.6 km/h 54 % 0.0 mm
19:49 28.0 °C 17.8 °C 1012.8 hPa ENE 13.0 km/h 13.0 km/h 54 % 0.0 mm
19:50 23.8 °C 18.2 °C 1013.8 hPa SW 1.6 km/h 3.2 km/h 71 % 0.0 mm
19:54 28.0 °C 17.8 °C 1012.8 hPa ESE 11.1 km/h 11.1 km/h 54 % 0.0 mm
19:59 27.9 °C 17.7 °C 1012.8 hPa SSE 5.6 km/h 5.6 km/h 54 % 0.0 mm
20:00 23.6 °C 18.1 °C 1013.8 hPa SW 1.6 km/h 3.2 km/h 71 % 0.0 mm
20:04 27.9 °C 17.7 °C 1013.8 hPa ESE 9.3 km/h 9.3 km/h 54 % 0.0 mm
20:09 27.8 °C 17.9 °C 1013.8 hPa ESE 9.5 km/h 9.5 km/h 55 % 0.0 mm
20:10 23.5 °C 18.2 °C 1013.8 hPa SW 1.6 km/h 3.2 km/h 72 % 0.0 mm
20:14 27.8 °C 17.9 °C 1013.8 hPa East 10.0 km/h 10.0 km/h 55 % 0.0 mm
20:19 27.7 °C 17.8 °C 1013.8 hPa NE 10.3 km/h 10.3 km/h 55 % 0.0 mm
20:20 23.4 °C 18.1 °C 1013.8 hPa SW 3.2 km/h 3.2 km/h 72 % 0.0 mm
20:24 27.6 °C 17.7 °C 1013.8 hPa ESE 7.9 km/h 7.9 km/h 55 % 0.0 mm
20:29 27.5 °C 17.7 °C 1013.8 hPa ESE 9.3 km/h 9.3 km/h 55 % 0.0 mm
20:30 23.3 °C 18.2 °C 1013.8 hPa SW 1.6 km/h 3.2 km/h 73 % 0.0 mm
20:34 27.4 °C 17.6 °C 1013.8 hPa NE 7.4 km/h 7.4 km/h 55 % 0.0 mm
20:39 27.3 °C 17.4 °C 1013.8 hPa ENE 6.1 km/h 6.1 km/h 55 % 0.0 mm
20:40 23.3 °C 18.2 °C 1014.8 hPa WSW 3.2 km/h 4.8 km/h 73 % 0.0 mm
20:44 27.3 °C 17.8 °C 1013.8 hPa NE 5.6 km/h 5.6 km/h 56 % 0.0 mm
20:49 27.3 °C 17.8 °C 1012.8 hPa ESE 3.9 km/h 3.9 km/h 56 % 0.0 mm
20:50 23.2 °C 18.3 °C 1014.8 hPa WSW 1.6 km/h 3.2 km/h 74 % 0.0 mm
20:54 27.3 °C 17.8 °C 1012.8 hPa SE 4.2 km/h 4.2 km/h 56 % 0.0 mm
20:59 27.2 °C 17.7 °C 1012.8 hPa East 3.9 km/h 3.9 km/h 56 % 0.0 mm
21:00 23.1 °C 18.4 °C 1013.8 hPa SW 1.6 km/h 3.2 km/h 75 % 0.0 mm
21:04 27.1 °C 17.6 °C 1013.8 hPa WSW 3.7 km/h 3.7 km/h 56 % 0.0 mm
21:09 27.1 °C 17.6 °C 1013.8 hPa WSW 3.7 km/h 3.7 km/h 56 % 0.0 mm
21:10 23.0 °C 18.3 °C 1013.8 hPa SW 1.6 km/h 3.2 km/h 75 % 0.0 mm
21:14 27.1 °C 17.6 °C 1013.8 hPa Calm     56 % 0.0 mm
21:19 27.0 °C 17.5 °C 1013.8 hPa SSE 1.9 km/h   56 % 0.0 mm
21:20 22.9 °C 18.7 °C 1013.8 hPa SW 1.6 km/h 3.2 km/h 77 % 0.0 mm
21:24 27.0 °C 17.5 °C 1013.8 hPa WSW 1.9 km/h   56 % 0.0 mm
21:29 26.9 °C 17.7 °C 1013.8 hPa WSW 1.9 km/h   57 % 0.0 mm
21:30 22.9 °C 18.7 °C 1013.8 hPa WSW 1.6 km/h 3.2 km/h 77 % 0.0 mm
21:34 26.9 °C 17.7 °C 1012.8 hPa WSW 5.6 km/h 5.6 km/h 57 % 0.0 mm
21:39 26.8 °C 17.8 °C 1012.8 hPa WSW 3.7 km/h 3.7 km/h 58 % 0.0 mm
21:40 22.8 °C 18.9 °C 1013.8 hPa Calm   3.2 km/h 79 % 0.0 mm
21:44 26.6 °C 17.9 °C 1012.8 hPa SW 3.7 km/h 3.7 km/h 59 % 0.0 mm
21:49 26.6 °C 18.2 °C 1013.8 hPa SW 3.9 km/h 3.9 km/h 60 % 0.0 mm
21:50 22.7 °C 18.9 °C 1013.8 hPa Calm   3.2 km/h 79 % 0.0 mm
21:54 26.4 °C 18.0 °C 1013.8 hPa SW 2.6 km/h 2.6 km/h 60 % 0.0 mm
21:59 26.3 °C 18.2 °C 1013.8 hPa SW 3.7 km/h 3.7 km/h 61 % 0.0 mm
22:00 22.7 °C 19.1 °C 1013.8 hPa Calm     80 % 0.0 mm
22:04 26.2 °C 18.1 °C 1013.8 hPa WNW 3.7 km/h 3.7 km/h 61 % 0.0 mm
22:09 26.1 °C 18.2 °C 1013.8 hPa SW 3.7 km/h 3.7 km/h 62 % 0.0 mm
22:10 22.4 °C 18.8 °C 1013.8 hPa Calm   3.2 km/h 80 % 0.0 mm
22:14 25.9 °C 18.3 °C 1013.8 hPa SW 3.7 km/h 3.7 km/h 63 % 0.0 mm
22:19 25.8 °C 18.2 °C 1012.8 hPa SW 7.4 km/h 7.4 km/h 63 % 0.0 mm
22:20 22.2 °C 18.6 °C 1013.8 hPa Calm     80 % 0.0 mm
22:24 25.7 °C 18.4 °C 1012.8 hPa SSW 3.7 km/h 3.7 km/h 64 % 0.0 mm
22:29 25.6 °C 18.3 °C 1012.8 hPa SW 3.9 km/h 3.9 km/h 64 % 0.0 mm
22:30 22.0 °C 18.2 °C 1013.8 hPa Calm     79 % 0.0 mm
22:34 25.5 °C 18.4 °C 1013.8 hPa SW 3.7 km/h 3.7 km/h 65 % 0.0 mm
22:39 25.5 °C 18.4 °C 1013.8 hPa SW 3.7 km/h 3.7 km/h 65 % 0.0 mm
22:40 21.9 °C 18.1 °C 1013.8 hPa Calm     79 % 0.0 mm
22:44 25.3 °C 18.2 °C 1013.8 hPa SW 3.7 km/h 3.7 km/h 65 % 0.0 mm
22:49 25.2 °C 18.2 °C 1013.8 hPa WSW 5.0 km/h 5.0 km/h 65 % 0.0 mm
22:50 21.9 °C 18.1 °C 1013.8 hPa Calm   1.6 km/h 79 % 0.0 mm
22:54 25.1 °C 18.3 °C 1013.8 hPa WSW 3.7 km/h 3.7 km/h 66 % 0.0 mm
22:59 25.0 °C 18.2 °C 1013.8 hPa WSW 1.9 km/h 1.9 km/h 66 % 0.0 mm
23:00 21.8 °C 18.2 °C 1013.8 hPa Calm   1.6 km/h 80 % 0.0 mm
23:04 25.0 °C 18.2 °C 1013.8 hPa WSW 3.9 km/h 3.9 km/h 66 % 0.0 mm
23:09 24.9 °C 18.3 °C 1013.8 hPa WSW 3.7 km/h 3.7 km/h 67 % 0.0 mm
23:10 21.7 °C 18.3 °C 1012.8 hPa Calm     81 % 0.0 mm
23:14 24.9 °C 18.3 °C 1013.8 hPa SSW 4.7 km/h 4.7 km/h 67 % 0.0 mm
23:19 24.9 °C 18.3 °C 1013.8 hPa WSW 5.6 km/h 5.6 km/h 67 % 0.0 mm
23:20 21.6 °C 18.2 °C 1012.8 hPa Calm     81 % 0.0 mm
23:24 24.8 °C 18.3 °C 1013.8 hPa SW 5.6 km/h 5.6 km/h 67 % 0.0 mm
23:29 24.7 °C 18.2 °C 1013.8 hPa SW 5.6 km/h 5.6 km/h 67 % 0.0 mm
23:30 21.5 °C 18.3 °C 1013.8 hPa SE 1.6 km/h 1.6 km/h 82 % 0.0 mm
23:34 24.6 °C 18.3 °C 1013.8 hPa SW 4.2 km/h 4.2 km/h 68 % 0.0 mm
23:39 24.5 °C 18.2 °C 1013.8 hPa SW 3.7 km/h 3.7 km/h 68 % 0.0 mm
23:40 21.5 °C 18.3 °C 1013.8 hPa Calm     82 % 0.0 mm
23:44 24.5 °C 18.2 °C 1013.8 hPa WSW 5.6 km/h 5.6 km/h 68 % 0.0 mm
23:49 24.4 °C 18.1 °C 1013.8 hPa SW 6.4 km/h 6.4 km/h 68 % 0.0 mm
23:50 21.5 °C 18.3 °C 1013.8 hPa East 1.6 km/h 3.2 km/h 82 % 0.0 mm
23:54 24.4 °C 18.1 °C 1013.8 hPa WSW 3.7 km/h 3.7 km/h 68 % 0.0 mm
23:59 24.3 °C 18.0 °C 1013.8 hPa SW 3.7 km/h 3.7 km/h 68 % 0.0 mm
Meteo Sesrovires
Elogis d' Weather Underground - 3.75 mb

Guio original per  Jim McMurry - jmcmurry@mwt.net Adaptat per a la plantilla per  Wim van der Kuil - Leuven-Template.eu

Trobareu la nostra informacio del temps tambe a:

Weather Underground

AWEKAS